< Cyclone 194809 1948 Season Cyclone 194811 >
Cyclone 194810 (unnamed)
General InformationTrack Information on Google Maps || ResourceGoogle EarthGE AnimationAtom FeedGeoJSON
Detalied Best Track (Time Zone = UTC)
Year Month Day Hour Lat. Long. Pressure (hPa) Wind (kt) Class Image Chart
1948 1 10 12 -19.9 157.4 -1 0 0 -- --
1948 1 10 18 -19.9 157.9 -1 0 0 -- --
1948 1 11 00 -19.9 158.2 -1 0 0 -- --
1948 1 11 06 -19.8 158.4 -1 0 0 -- --
1948 1 11 12 -19.7 158.7 -1 0 0 -- --
1948 1 11 18 -19.7 158.9 -1 0 0 -- --
1948 1 12 00 -19.6 159.2 -1 0 0 -- --
1948 1 12 06 -19.5 159.4 -1 0 0 -- --
1948 1 12 12 -19.4 159.5 -1 0 0 -- --
1948 1 12 18 -19.3 159.7 -1 0 0 -- --
1948 1 13 00 -19.2 160.0 -1 0 0 -- --
1948 1 13 06 -18.7 160.6 -1 0 0 -- --
1948 1 13 12 -17.9 161.5 -1 0 0 -- --
1948 1 13 18 -17.4 162.4 -1 0 0 -- --
1948 1 14 00 -17.3 163.4 -1 0 0 -- --
1948 1 14 06 -18.0 164.5 -1 0 0 -- --
1948 1 14 12 -18.9 165.6 -1 0 0 -- --
1948 1 14 18 -19.9 166.6 -1 0 0 -- --
1948 1 15 00 -20.9 167.3 -1 0 0 -- --
1948 1 15 06 -21.7 167.9 -1 0 0 -- --
1948 1 15 12 -22.4 168.4 -1 0 0 -- --
1948 1 15 18 -23.1 169.0 -1 0 0 -- --
1948 1 16 00 -23.8 169.6 -1 0 0 -- --
< Cyclone 194809 1948 Season Cyclone 194811 >

Help